Aérodrome :
LOGIN :

S'inscrire | Disclaimer

   EN    FR    IT 

 










Légende :    VFR   VFR Marginal   IFR   IFR Intensif   IFR Très Intensif
Visi : 
Plafond : 
>= 8 km
>= 3000ft
5 à 8 km
1000 à 3000 ft
1500m à 5 km
500 à 1000 ft
800 à 1500m
200 à 500 ft
< 800m
< 200 ft
Symboles :   Orages  Brouillard  Fortes neiges  Fortes précipitations  Vent > 20 kt
SIGMETs :   Divers  Orages  Givrage  Turbulence  Onde Orograph.  Cendres Volcan.







- Altitude de l'aérodrome : 68 ft
- Code IATA : AGH


ESTA - Ängelholm-Helsingborg

DERNIER METAR :
  • 171450Z 28008KT CAVOK 23/17 Q1012

METARs EXPIRÉS :
  • 171420Z 26006KT CAVOK 24/17 Q1012
  • 171350Z 25007KT CAVOK 24/16 Q1012
  • 171320Z 29007KT CAVOK 24/17 Q1013
  • 171250Z 25008KT CAVOK 24/17 Q1012
  • 171220Z 26010KT CAVOK 24/17 Q1012

TAF TAF ESTA
Valide du 17 à 15h jusqu'au 17 à 21h UTC


171403Z 1715/1721 27010KT CAVOK
TEMPO 1715/1721 SHRA SCT050CB
PROB40
TEMPO 1715/1721 TSRA
Pas de NOTAMs connus pour ce terrain.
1 SIGMET publié pour la FIR Sweden (ESAA) :
 
Orages en lignes de grains
ESAA SIGMET 2 VALID 171430/171630 ESSA
ESAA SWEDEN FIR SQL TS FCST WI N5752 E01330 - N5815 E01415 - N5624 E01410 - N5612 E01332 - N5752 E01330 TOP FL370 MOV W 10KT NC=



MET'MAP, la Météo Aéronautique d'un coup d'oeil ! - Copyright ORBIFLY Décembre 2007 - Disclaimer

ORBIFLY MET'MAP TEAM :

Programmation & Développement : Alexandra Zaïnal
Conception & Développement : Baudouin d'Aumeries
Co-Programmation & Développement : Marc-Olivier Méhu
Soutien technique & logistique : Manuel Goepfert

Contact : metmap@orbifly.com




SOURCES & CREDITS :

   NOAA